Orlando, Florida
Traffic Map
Current Weather Conditions
Orlando, Florida
Clear
Clear
48°
Feels Like: 44°
Wind Chill: 44° Ceiling: Unl
Heat Index: 48° Visibility: 10mi
Dew Point: 37° Wind: 8mph
Humidity: 66% Direction: 360° (N)
Pressure: 30.25in Gusts: 0mph
Raw Report DataKORL 140953Z AUTO 36007KT 10SM CLR 09/03 A3025 RMK AO2 SLP246 T00890028
Traffic Incident Summary
Active as of:
Severity:
Category:
InformationThere was an issue retrieving the traffic information for this location. Please try a different location or try again shortly.
Advertisements
Track Severe Weather on mobile